createdAt,value
2023-05-11T00:01:14.667Z,51.97
2023-05-11T00:06:17.414Z,52.08
2023-05-11T00:11:20.168Z,52.23
2023-05-11T00:16:22.761Z,52.48
2023-05-11T00:21:25.308Z,52.34
2023-05-11T00:26:27.809Z,52.89
2023-05-11T00:31:30.655Z,53.01
2023-05-11T00:36:33.710Z,53.41
2023-05-11T00:41:36.529Z,53.42
2023-05-11T00:46:39.196Z,53.82
2023-05-11T00:51:41.646Z,53.93
2023-05-11T00:56:44.161Z,54.23
2023-05-11T01:01:46.832Z,54.05
2023-05-11T01:07:04.342Z,55.14
2023-05-11T01:12:09.039Z,54.21
2023-05-11T01:17:19.531Z,55.51
2023-05-11T01:22:32.128Z,55.37
2023-05-11T01:27:55.753Z,55.54
2023-05-11T01:33:00.624Z,54.73
2023-05-11T01:38:04.639Z,55.35
2023-05-11T01:43:10.626Z,55.62
2023-05-11T01:48:20.728Z,55.90
2023-05-11T01:53:23.791Z,55.02
2023-05-11T01:58:27.771Z,56.04
2023-05-11T02:03:32.067Z,55.81
2023-05-11T02:08:35.028Z,55.39
2023-05-11T02:13:39.735Z,55.75
2023-05-11T02:18:43.039Z,55.77
2023-05-11T02:23:47.258Z,55.96
2023-05-11T02:28:50.567Z,56.14
2023-05-11T02:33:54.282Z,56.94
2023-05-11T02:39:03.744Z,57.81
2023-05-11T02:44:08.260Z,57.23
2023-05-11T02:49:12.051Z,56.96
2023-05-11T02:54:15.657Z,57.20
2023-05-11T02:59:23.652Z,56.79
2023-05-11T03:04:26.271Z,56.71
2023-05-11T03:09:29.226Z,56.65
2023-05-11T03:14:33.662Z,57.50
2023-05-11T03:19:37.450Z,57.28
2023-05-11T03:24:40.588Z,57.45
2023-05-11T03:29:44.949Z,57.82
2023-05-11T03:34:47.883Z,57.81
2023-05-11T03:39:56.831Z,58.87
2023-05-11T03:45:01.442Z,58.22
2023-05-11T03:50:08.103Z,57.55
2023-05-11T03:55:11.145Z,57.91
2023-05-11T04:00:14.188Z,58.33
2023-05-11T04:05:20.644Z,58.17
2023-05-11T04:10:23.921Z,57.59
2023-05-11T04:15:26.263Z,57.58
2023-05-11T04:20:28.715Z,57.34
2023-05-11T04:25:31.048Z,56.51
2023-05-11T04:30:33.545Z,55.83
2023-05-11T04:35:40.024Z,55.90
2023-05-11T04:40:43.715Z,55.57
2023-05-11T04:45:52.780Z,56.07
2023-05-11T04:50:59.826Z,55.04
2023-05-11T04:56:06.890Z,54.07
2023-05-11T05:01:09.632Z,53.21
2023-05-11T05:06:12.242Z,52.38
2023-05-11T05:11:14.905Z,51.87
2023-05-11T05:16:17.533Z,51.32
2023-05-11T05:21:20.158Z,50.74
2023-05-11T05:26:24.312Z,49.98
2023-05-11T05:31:27.302Z,49.43
2023-05-11T05:36:30.656Z,48.87
2023-05-11T05:41:33.115Z,49.06
2023-05-11T05:46:36.903Z,47.71
2023-05-11T05:51:39.854Z,46.92
2023-05-11T05:56:43.182Z,47.19
2023-05-11T06:01:48.381Z,46.06
2023-05-11T06:06:51.626Z,46.10
2023-05-11T06:11:54.530Z,45.09
2023-05-11T06:16:59.149Z,44.78
2023-05-11T06:22:06.727Z,44.53
2023-05-11T06:27:11.666Z,44.02
2023-05-11T06:32:15.426Z,43.45
2023-05-11T06:37:21.435Z,43.29
2023-05-11T06:42:26.119Z,42.06
2023-05-11T06:47:39.828Z,42.07
2023-05-11T06:52:42.390Z,41.44
2023-05-11T06:57:46.149Z,40.51
2023-05-11T07:02:48.865Z,41.38
2023-05-11T07:07:51.668Z,40.28
2023-05-11T07:12:54.283Z,39.43
2023-05-11T07:17:56.926Z,39.46
2023-05-11T07:22:59.736Z,38.89
2023-05-11T07:28:02.265Z,38.44
2023-05-11T07:33:04.847Z,37.24
2023-05-11T07:38:12.204Z,37.59
2023-05-11T07:43:14.747Z,37.13
2023-05-11T07:48:18.475Z,37.33
2023-05-11T07:53:21.050Z,38.20
2023-05-11T07:58:23.701Z,36.89
2023-05-11T08:03:26.254Z,35.90
2023-05-11T08:08:28.812Z,36.31
2023-05-11T08:13:32.080Z,36.49
2023-05-11T08:18:34.691Z,36.39
2023-05-11T08:23:37.629Z,36.08
2023-05-11T08:28:40.185Z,35.49
2023-05-11T08:33:42.795Z,35.02
2023-05-11T08:38:45.352Z,35.72
2023-05-11T08:43:49.228Z,34.91
2023-05-11T08:48:51.695Z,35.14
2023-05-11T08:53:54.995Z,35.97
2023-05-11T08:58:58.305Z,35.61
2023-05-11T09:04:01.042Z,34.39
2023-05-11T09:09:04.097Z,34.23
2023-05-11T09:14:06.865Z,34.06
2023-05-11T09:19:15.731Z,35.07
2023-05-11T09:24:20.856Z,34.81
2023-05-11T09:29:23.664Z,34.22
2023-05-11T09:34:27.108Z,33.70
2023-05-11T09:39:42.201Z,34.43
2023-05-11T09:44:58.075Z,33.73
2023-05-11T09:50:00.517Z,33.17
2023-05-11T09:55:11.136Z,32.51
2023-05-11T10:00:16.968Z,36.53
2023-05-11T10:05:21.950Z,38.03
2023-05-11T10:10:24.888Z,42.07
2023-05-11T10:15:31.037Z,49.10
2023-05-11T10:20:33.678Z,47.66
2023-05-11T10:25:38.105Z,48.18
2023-05-11T10:30:41.520Z,47.05
2023-05-11T10:35:46.801Z,45.28
2023-05-11T10:40:49.924Z,44.80
2023-05-11T10:46:17.317Z,43.18
2023-05-11T10:51:38.451Z,42.32
2023-05-11T10:56:53.711Z,41.36
2023-05-11T11:01:59.436Z,39.23
2023-05-11T11:07:09.247Z,38.46
2023-05-11T11:12:12.646Z,38.74
2023-05-11T11:17:15.244Z,36.23
2023-05-11T11:22:36.603Z,35.18
2023-05-11T11:27:42.107Z,35.74
2023-05-11T11:32:46.317Z,37.17
2023-05-11T11:38:07.315Z,38.89
2023-05-11T11:43:19.585Z,41.16
2023-05-11T11:48:24.418Z,41.05
2023-05-11T11:53:41.530Z,39.75
2023-05-11T11:58:44.803Z,38.64
2023-05-11T12:03:52.811Z,42.46
2023-05-11T12:08:55.489Z,45.44
2023-05-11T12:13:58.684Z,47.00
2023-05-11T12:19:02.293Z,46.72
2023-05-11T12:24:06.095Z,47.16
2023-05-11T12:29:09.509Z,47.43
2023-05-11T12:34:19.198Z,49.10
2023-05-11T12:39:26.734Z,49.77
2023-05-11T12:44:29.765Z,48.77
2023-05-11T12:49:32.755Z,48.69
2023-05-11T12:54:39.679Z,48.27
2023-05-11T12:59:42.312Z,47.78
2023-05-11T13:04:47.209Z,47.46
2023-05-11T13:10:00.364Z,47.17
2023-05-11T13:15:06.443Z,45.87
2023-05-11T13:20:22.616Z,46.12
2023-05-11T13:25:25.355Z,45.31
2023-05-11T13:30:28.667Z,44.50
2023-05-11T13:35:31.445Z,44.12
2023-05-11T13:40:35.339Z,44.55
2023-05-11T13:45:40.537Z,44.25
2023-05-11T13:50:43.284Z,44.48
2023-05-11T13:55:48.456Z,44.21
2023-05-11T14:01:06.710Z,43.95
2023-05-11T14:06:10.640Z,43.29
2023-05-11T14:11:14.657Z,42.70
2023-05-11T14:16:17.989Z,43.26
2023-05-11T14:21:21.156Z,43.24
2023-05-11T14:26:23.775Z,43.51
2023-05-11T14:31:26.586Z,42.88
2023-05-11T14:36:29.111Z,43.22
2023-05-11T14:41:31.602Z,43.06
2023-05-11T14:46:35.760Z,43.55
2023-05-11T14:51:39.675Z,43.93
2023-05-11T14:56:42.250Z,43.76
2023-05-11T15:01:44.934Z,43.95
2023-05-11T15:06:47.448Z,44.02
2023-05-11T15:11:50.019Z,43.95
2023-05-11T15:16:55.098Z,44.23
2023-05-11T15:21:57.840Z,44.37
2023-05-11T15:27:00.630Z,44.55
2023-05-11T15:32:03.211Z,44.60
2023-05-11T15:37:06.407Z,44.95
2023-05-11T15:42:08.830Z,43.96
2023-05-11T15:47:12.396Z,44.57
2023-05-11T15:52:14.845Z,44.07
2023-05-11T15:57:17.333Z,43.65
2023-05-11T16:02:19.917Z,43.94
2023-05-11T16:07:22.619Z,43.97
2023-05-11T16:12:25.192Z,44.47
2023-05-11T16:17:27.877Z,44.94
2023-05-11T16:22:31.562Z,45.34
2023-05-11T16:27:34.390Z,46.18
2023-05-11T16:32:37.191Z,46.29
2023-05-11T16:37:40.804Z,47.23
2023-05-11T16:42:43.637Z,47.78
2023-05-11T16:47:47.389Z,47.64
2023-05-11T16:52:50.024Z,48.53
2023-05-11T16:57:55.722Z,49.91
2023-05-11T17:02:58.835Z,50.84
2023-05-11T17:08:01.526Z,50.49
2023-05-11T17:13:04.661Z,49.93
2023-05-11T17:18:07.327Z,50.61
2023-05-11T17:23:09.888Z,50.79
2023-05-11T17:28:12.556Z,50.66
2023-05-11T17:33:15.892Z,51.24
2023-05-11T17:38:18.720Z,51.08
2023-05-11T17:43:21.191Z,51.45
2023-05-11T17:48:24.556Z,51.25
2023-05-11T17:53:27.743Z,51.66
2023-05-11T17:58:30.412Z,51.92
2023-05-11T18:03:33.117Z,52.46
2023-05-11T18:08:37.033Z,53.15
2023-05-11T18:13:40.008Z,53.06
2023-05-11T18:18:43.059Z,53.78
2023-05-11T18:23:46.612Z,53.71
2023-05-11T18:28:49.463Z,54.35
2023-05-11T18:33:52.116Z,54.45
2023-05-11T18:38:54.556Z,55.18
2023-05-11T18:43:57.283Z,54.94
2023-05-11T18:49:02.683Z,54.98
2023-05-11T18:54:05.523Z,55.19
2023-05-11T18:59:08.385Z,55.74
2023-05-11T19:04:10.913Z,55.84
2023-05-11T19:09:15.486Z,56.43
2023-05-11T19:14:21.338Z,56.62
2023-05-11T19:19:26.119Z,56.87
2023-05-11T19:24:30.139Z,57.20
2023-05-11T19:35:14.438Z,57.47
2023-05-11T19:45:33.122Z,57.96
2023-05-11T19:50:36.776Z,58.00
2023-05-11T19:55:41.033Z,58.61
2023-05-11T20:00:43.725Z,58.36
2023-05-11T20:05:47.216Z,58.66
2023-05-11T20:10:49.989Z,58.99
2023-05-11T20:15:52.527Z,59.09
2023-05-11T20:20:55.168Z,59.38
2023-05-11T20:25:57.664Z,59.64
2023-05-11T20:31:00.145Z,59.88
2023-05-11T20:36:02.819Z,60.18
2023-05-11T20:41:05.703Z,60.11
2023-05-11T20:46:08.110Z,60.15
2023-05-11T20:51:10.723Z,60.28
2023-05-11T20:56:13.880Z,60.31
2023-05-11T21:01:16.360Z,60.63
2023-05-11T21:06:19.165Z,60.82
2023-05-11T21:11:22.436Z,61.10
2023-05-11T21:16:25.002Z,61.16
2023-05-11T21:21:27.842Z,61.28
2023-05-11T21:26:30.783Z,61.42
2023-05-11T21:31:33.490Z,61.50
2023-05-11T21:36:36.484Z,61.77
2023-05-11T21:41:39.402Z,61.84
2023-05-11T21:46:42.109Z,61.93
2023-05-11T21:51:44.624Z,62.41
2023-05-11T21:56:47.079Z,62.60
2023-05-11T22:01:50.016Z,62.51
2023-05-11T22:06:52.741Z,62.48
2023-05-11T22:11:55.322Z,62.64
2023-05-11T22:16:57.900Z,62.39
2023-05-11T22:22:00.476Z,62.52
2023-05-11T22:27:03.136Z,62.93
2023-05-11T22:32:06.071Z,62.81
2023-05-11T22:37:08.801Z,63.00
2023-05-11T22:42:11.289Z,63.03
2023-05-11T22:47:13.999Z,62.80
2023-05-11T22:52:16.746Z,62.71
2023-05-11T22:57:19.284Z,62.62
2023-05-11T23:02:21.889Z,62.68
2023-05-11T23:07:24.605Z,62.79
2023-05-11T23:12:27.046Z,62.81
2023-05-11T23:17:29.688Z,62.77
2023-05-11T23:22:33.123Z,63.25
2023-05-11T23:27:35.636Z,63.10
2023-05-11T23:32:38.290Z,63.26
2023-05-11T23:37:41.070Z,63.51
2023-05-11T23:42:44.060Z,63.61
2023-05-11T23:47:46.791Z,63.85
2023-05-11T23:52:50.067Z,63.97
2023-05-11T23:57:52.568Z,64.00
